createdAt,value
2023-04-02T00:00:03.938Z,2.08
2023-04-02T00:00:18.076Z,1.83
2023-04-02T00:00:29.584Z,1.90
2023-04-02T00:01:00.934Z,1.90
2023-04-02T00:01:35.845Z,1.65
2023-04-02T00:01:47.264Z,2.38
2023-04-02T00:02:23.228Z,2.42
2023-04-02T00:02:34.868Z,1.70
2023-04-02T00:02:55.565Z,1.60
2023-04-02T00:03:08.398Z,1.88
2023-04-02T00:03:20.005Z,2.10
2023-04-02T00:03:40.784Z,2.03
2023-04-02T00:03:58.225Z,2.13
2023-04-02T00:04:16.467Z,2.03
2023-04-02T00:04:28.136Z,2.00
2023-04-02T00:04:39.565Z,2.10
2023-04-02T00:05:25.214Z,1.85
2023-04-02T00:05:41.412Z,2.08
2023-04-02T00:05:52.874Z,1.83
2023-04-02T00:06:30.276Z,2.00
2023-04-02T00:06:43.488Z,2.17
2023-04-02T00:07:16.478Z,2.13
2023-04-02T00:07:31.171Z,1.90
2023-04-02T00:07:43.667Z,2.15
2023-04-02T00:07:55.182Z,2.13
2023-04-02T00:08:18.707Z,2.00
2023-04-02T00:08:38.083Z,1.98
2023-04-02T00:08:49.590Z,2.03
2023-04-02T00:09:28.884Z,2.75
2023-04-02T00:09:40.330Z,2.10
2023-04-02T00:09:51.787Z,2.03
2023-04-02T00:10:03.583Z,2.13
2023-04-02T00:10:47.480Z,2.10
2023-04-02T00:11:02.265Z,1.83
2023-04-02T00:11:13.727Z,1.60
2023-04-02T00:11:33.886Z,1.63
2023-04-02T00:11:48.413Z,1.92
2023-04-02T00:12:13.404Z,2.13
2023-04-02T00:12:25.395Z,2.00
2023-04-02T00:12:36.881Z,2.10
2023-04-02T00:13:04.282Z,2.10
2023-04-02T00:13:15.588Z,2.00
2023-04-02T00:13:33.466Z,2.17
2023-04-02T00:13:46.097Z,2.28
2023-04-02T00:14:01.233Z,2.22
2023-04-02T00:14:22.840Z,2.05
2023-04-02T00:14:34.571Z,1.90
2023-04-02T00:14:48.685Z,2.00
2023-04-02T00:15:00.179Z,2.13
2023-04-02T00:15:13.009Z,2.25
2023-04-02T00:15:24.450Z,2.28
2023-04-02T00:15:37.720Z,2.20
2023-04-02T00:15:57.498Z,2.40
2023-04-02T00:16:17.266Z,2.33
2023-04-02T00:16:29.511Z,2.30
2023-04-02T00:16:41.468Z,2.33
2023-04-02T00:16:54.951Z,2.20
2023-04-02T00:17:06.798Z,2.15
2023-04-02T00:17:19.676Z,2.20
2023-04-02T00:17:31.122Z,2.40
2023-04-02T00:17:42.578Z,2.47
2023-04-02T00:17:54.232Z,2.30
2023-04-02T00:18:06.297Z,2.13
2023-04-02T00:18:21.109Z,2.35
2023-04-02T00:18:34.025Z,2.50
2023-04-02T00:18:50.310Z,2.30
2023-04-02T00:19:06.484Z,1.90
2023-04-02T00:19:38.495Z,2.40
2023-04-02T00:19:56.835Z,2.15
2023-04-02T00:20:08.785Z,2.10
2023-04-02T00:20:21.760Z,2.13
2023-04-02T00:20:37.462Z,2.10
2023-04-02T00:20:53.760Z,2.15
2023-04-02T00:21:21.269Z,2.30
2023-04-02T00:21:37.284Z,2.10
2023-04-02T00:21:51.358Z,2.03
2023-04-02T00:22:07.405Z,1.90
2023-04-02T00:22:21.897Z,1.90
2023-04-02T00:22:33.307Z,1.77
2023-04-02T00:22:44.926Z,1.50
2023-04-02T00:22:56.793Z,1.55
2023-04-02T00:23:12.121Z,1.70
2023-04-02T00:23:23.738Z,1.60
2023-04-02T00:23:40.922Z,1.50
2023-04-02T00:23:55.184Z,1.67
2023-04-02T00:24:19.385Z,1.70
2023-04-02T00:24:32.547Z,1.45
2023-04-02T00:24:44.089Z,1.40
2023-04-02T00:24:56.534Z,1.13
2023-04-02T00:25:13.629Z,1.20
2023-04-02T00:25:27.715Z,1.20
2023-04-02T00:25:44.090Z,1.10
2023-04-02T00:25:55.579Z,1.10
2023-04-02T00:26:25.456Z,1.25
2023-04-02T00:26:39.956Z,1.50
2023-04-02T00:26:53.819Z,1.42
2023-04-02T00:27:10.425Z,1.23
2023-04-02T00:27:21.959Z,1.30
2023-04-02T00:27:33.333Z,1.25
2023-04-02T00:27:45.253Z,1.20
2023-04-02T00:27:56.825Z,1.20
2023-04-02T00:28:20.363Z,1.42
2023-04-02T00:28:31.992Z,1.35
2023-04-02T00:28:43.402Z,1.20
2023-04-02T00:28:55.003Z,1.20
2023-04-02T00:29:09.788Z,1.15
2023-04-02T00:29:21.700Z,1.38
2023-04-02T00:29:33.113Z,1.30
2023-04-02T00:29:52.786Z,1.20
2023-04-02T00:30:04.772Z,1.20
2023-04-02T00:30:16.463Z,1.10
2023-04-02T00:30:28.158Z,1.00
2023-04-02T00:31:06.128Z,1.20
2023-04-02T00:31:20.224Z,1.17
2023-04-02T00:31:32.577Z,1.30
2023-04-02T00:31:50.334Z,1.15
2023-04-02T00:32:02.204Z,0.98
2023-04-02T00:32:29.141Z,1.00
2023-04-02T00:32:40.791Z,0.90
2023-04-02T00:32:52.617Z,1.05
2023-04-02T00:33:04.109Z,1.10
2023-04-02T00:33:18.394Z,0.90
2023-04-02T00:33:31.605Z,0.93
2023-04-02T00:33:43.863Z,1.00
2023-04-02T00:33:55.431Z,1.00
2023-04-02T00:34:09.926Z,0.98
2023-04-02T00:34:21.257Z,0.90
2023-04-02T00:34:37.074Z,0.90
2023-04-02T00:34:48.938Z,1.00
2023-04-02T00:35:00.922Z,0.85
2023-04-02T00:35:20.436Z,0.80
2023-04-02T00:35:32.060Z,0.88
2023-04-02T00:35:43.543Z,1.05
2023-04-02T00:35:56.081Z,0.90
2023-04-02T00:36:08.882Z,0.98
2023-04-02T00:36:23.129Z,1.00
2023-04-02T00:36:35.462Z,1.02
2023-04-02T00:36:48.854Z,1.00
2023-04-02T00:37:00.658Z,1.00
2023-04-02T00:37:18.635Z,0.88
2023-04-02T00:37:33.363Z,0.80
2023-04-02T00:37:44.876Z,0.70
2023-04-02T00:37:56.725Z,0.70
2023-04-02T00:38:17.752Z,0.70
2023-04-02T00:38:34.765Z,0.70
2023-04-02T00:38:47.540Z,0.73
2023-04-02T00:39:03.094Z,0.70
2023-04-02T00:39:25.394Z,0.68
2023-04-02T00:39:39.387Z,0.80
2023-04-02T00:40:01.545Z,0.80
2023-04-02T00:40:33.259Z,0.80
2023-04-02T00:40:46.387Z,0.80
2023-04-02T00:41:01.918Z,0.80
2023-04-02T00:41:22.523Z,0.90
2023-04-02T00:41:37.375Z,0.70
2023-04-02T00:41:51.382Z,0.88
2023-04-02T00:42:05.285Z,0.98
2023-04-02T00:42:18.513Z,0.80
2023-04-02T00:42:33.350Z,0.80
2023-04-02T00:42:47.596Z,0.80
2023-04-02T00:43:00.218Z,0.70
2023-04-02T00:43:14.646Z,0.73
2023-04-02T00:43:29.807Z,0.90
2023-04-02T00:43:44.584Z,0.82
2023-04-02T00:43:59.974Z,0.80
2023-04-02T00:44:15.303Z,0.93
2023-04-02T00:44:28.279Z,0.90
2023-04-02T00:44:42.073Z,0.90
2023-04-02T00:44:54.070Z,0.80
2023-04-02T00:45:15.241Z,0.73
2023-04-02T00:45:35.742Z,0.70
2023-04-02T00:45:56.225Z,0.75
2023-04-02T00:46:16.478Z,0.77
2023-04-02T00:46:39.568Z,0.90
2023-04-02T00:46:52.456Z,0.90
2023-04-02T00:47:15.958Z,0.90
2023-04-02T00:47:39.109Z,0.75
2023-04-02T00:47:51.560Z,0.70
2023-04-02T00:48:23.555Z,0.70
2023-04-02T00:48:45.052Z,1.52
2023-04-02T00:49:35.975Z,1.33
2023-04-02T00:49:51.897Z,0.95
2023-04-02T00:50:15.374Z,0.82
2023-04-02T00:50:32.619Z,0.85
2023-04-02T00:50:45.576Z,0.80
2023-04-02T00:51:00.131Z,0.80
2023-04-02T00:51:19.378Z,1.00
2023-04-02T00:51:41.748Z,0.90
2023-04-02T00:51:57.619Z,0.70
2023-04-02T00:52:13.272Z,0.70
2023-04-02T00:52:28.253Z,0.80
2023-04-02T00:52:43.064Z,0.90
2023-04-02T00:52:56.529Z,0.77
2023-04-02T00:53:18.019Z,0.80
2023-04-02T00:53:30.976Z,0.93
2023-04-02T00:53:45.916Z,0.93
2023-04-02T00:54:01.516Z,0.90
2023-04-02T00:54:13.686Z,1.25
2023-04-02T00:54:29.494Z,1.50
2023-04-02T00:54:56.057Z,1.50
2023-04-02T00:55:19.301Z,0.70
2023-04-02T00:55:41.837Z,0.70
2023-04-02T00:55:53.436Z,0.80
2023-04-02T00:56:19.521Z,0.90
2023-04-02T00:56:48.888Z,0.90
2023-04-02T00:57:01.769Z,0.70
2023-04-02T00:57:20.955Z,0.60
2023-04-02T00:57:32.976Z,0.68
2023-04-02T00:57:45.540Z,0.68
2023-04-02T00:57:58.809Z,0.70
2023-04-02T00:58:48.246Z,0.70
2023-04-02T00:59:00.243Z,0.70
2023-04-02T00:59:29.907Z,0.70
2023-04-02T00:59:54.320Z,0.90
2023-04-02T01:00:36.112Z,0.60
2023-04-02T01:00:51.140Z,0.70
2023-04-02T01:01:03.033Z,0.65
2023-04-02T01:01:20.220Z,0.50
2023-04-02T01:01:37.329Z,0.60
2023-04-02T01:01:53.583Z,0.60
2023-04-02T01:02:14.519Z,0.70
2023-04-02T01:02:32.304Z,0.85
2023-04-02T01:02:44.011Z,0.82
2023-04-02T01:03:37.109Z,0.80
2023-04-02T01:03:54.476Z,0.70
2023-04-02T01:04:06.107Z,0.70
2023-04-02T01:04:29.684Z,0.70
2023-04-02T01:04:41.643Z,0.60
2023-04-02T01:05:00.402Z,0.80
2023-04-02T01:05:14.856Z,0.80
2023-04-02T01:05:26.412Z,0.70
2023-04-02T01:05:38.080Z,0.70
2023-04-02T01:05:57.382Z,0.70
2023-04-02T01:06:16.058Z,0.77
2023-04-02T01:06:33.870Z,0.90
2023-04-02T01:06:45.316Z,0.73
2023-04-02T01:06:57.700Z,0.60
2023-04-02T01:07:12.123Z,0.68
2023-04-02T01:07:55.685Z,0.85
2023-04-02T01:08:21.979Z,0.60
2023-04-02T01:08:54.617Z,0.57
2023-04-02T01:09:28.715Z,0.70
2023-04-02T01:09:52.584Z,0.70
2023-04-02T01:10:25.303Z,0.60
2023-04-02T01:10:51.419Z,0.70
2023-04-02T01:11:21.109Z,0.70
2023-04-02T01:11:41.736Z,0.60
2023-04-02T01:12:05.281Z,0.60
2023-04-02T01:12:39.527Z,0.63
2023-04-02T01:13:18.336Z,0.60
2023-04-02T01:13:45.609Z,0.50
2023-04-02T01:14:16.563Z,0.60
2023-04-02T01:14:46.754Z,0.60
2023-04-02T01:15:18.256Z,0.60
2023-04-02T01:15:39.345Z,0.63
2023-04-02T01:16:02.903Z,0.60
2023-04-02T01:16:26.468Z,0.50
2023-04-02T01:16:52.233Z,0.68
2023-04-02T01:17:08.718Z,0.55
2023-04-02T01:17:41.577Z,0.50
2023-04-02T01:18:04.338Z,0.57
2023-04-02T01:18:42.070Z,0.50
2023-04-02T01:19:07.819Z,0.60
2023-04-02T01:19:39.242Z,0.55
2023-04-02T01:20:05.826Z,0.60
2023-04-02T01:20:29.379Z,0.50
2023-04-02T01:20:56.227Z,0.60
2023-04-02T01:21:36.976Z,0.55
2023-04-02T01:22:05.251Z,0.50
2023-04-02T01:22:19.562Z,0.70
2023-04-02T01:22:44.584Z,0.75
2023-04-02T01:23:14.674Z,0.70
2023-04-02T01:23:52.909Z,0.80
2023-04-02T01:24:07.242Z,1.20
2023-04-02T01:24:20.610Z,1.50
2023-04-02T01:24:34.696Z,1.60
2023-04-02T01:24:47.443Z,1.60
2023-04-02T01:24:58.946Z,1.50
2023-04-02T01:25:17.459Z,1.70
2023-04-02T01:25:54.407Z,2.03
2023-04-02T01:26:16.848Z,1.90
2023-04-02T01:26:40.441Z,2.35
2023-04-02T01:26:57.315Z,2.30
2023-04-02T01:27:27.760Z,2.35
2023-04-02T01:27:48.047Z,2.10
2023-04-02T01:28:06.160Z,1.95
2023-04-02T01:28:43.148Z,2.30
2023-04-02T01:29:15.176Z,2.42
2023-04-02T01:29:40.065Z,2.42
2023-04-02T01:29:55.944Z,2.08
2023-04-02T01:30:09.332Z,2.13
2023-04-02T01:30:21.205Z,2.25
2023-04-02T01:30:35.856Z,2.17
2023-04-02T01:30:54.362Z,2.30
2023-04-02T01:31:06.028Z,2.20
2023-04-02T01:31:17.807Z,2.22
2023-04-02T01:31:30.941Z,2.42
2023-04-02T01:31:45.591Z,2.63
2023-04-02T01:32:02.457Z,2.33
2023-04-02T01:32:18.576Z,2.00
2023-04-02T01:32:30.858Z,2.17
2023-04-02T01:32:43.070Z,2.40
2023-04-02T01:32:54.622Z,2.50
2023-04-02T01:33:06.269Z,2.65
2023-04-02T01:33:21.410Z,2.38
2023-04-02T01:33:35.047Z,2.42
2023-04-02T01:33:47.926Z,2.58
2023-04-02T01:34:00.573Z,2.67
2023-04-02T01:34:17.185Z,2.65
2023-04-02T01:34:29.595Z,2.50
2023-04-02T01:34:43.041Z,2.40
2023-04-02T01:34:55.609Z,2.50
2023-04-02T01:35:08.035Z,2.38
2023-04-02T01:35:21.554Z,2.20
2023-04-02T01:35:38.794Z,2.17
2023-04-02T01:36:08.847Z,2.70
2023-04-02T01:36:28.879Z,2.70
2023-04-02T01:37:01.973Z,2.55
2023-04-02T01:37:28.881Z,2.63
2023-04-02T01:38:01.828Z,2.63
2023-04-02T01:38:34.408Z,2.10
2023-04-02T01:39:19.245Z,2.72
2023-04-02T01:39:53.259Z,2.60
2023-04-02T01:40:25.325Z,2.67
2023-04-02T01:40:50.679Z,2.80
2023-04-02T01:41:24.857Z,2.78
2023-04-02T01:41:47.753Z,3.25
2023-04-02T01:42:04.411Z,3.15
2023-04-02T01:42:29.874Z,2.47
2023-04-02T01:42:46.981Z,2.78
2023-04-02T01:43:17.304Z,2.80
2023-04-02T01:43:35.267Z,3.03
2023-04-02T01:43:54.670Z,2.92
2023-04-02T01:44:13.907Z,3.08
2023-04-02T01:44:39.779Z,3.03
2023-04-02T01:45:02.498Z,2.75
2023-04-02T01:45:17.071Z,2.78
2023-04-02T01:45:28.751Z,2.72
2023-04-02T01:45:42.713Z,2.75
2023-04-02T01:45:54.474Z,2.67
2023-04-02T01:46:25.915Z,2.53
2023-04-02T01:46:41.890Z,2.85
2023-04-02T01:46:53.739Z,2.60
2023-04-02T01:47:10.852Z,3.00
2023-04-02T01:47:24.655Z,3.22
2023-04-02T01:47:37.530Z,2.90
2023-04-02T01:47:49.981Z,2.58
2023-04-02T01:48:14.883Z,2.53
2023-04-02T01:48:30.226Z,2.60
2023-04-02T01:48:42.475Z,2.88
2023-04-02T01:48:55.328Z,2.88
2023-04-02T01:49:19.434Z,2.97
2023-04-02T01:49:30.991Z,2.95
2023-04-02T01:49:44.300Z,2.83
2023-04-02T01:50:04.658Z,2.85
2023-04-02T01:50:19.040Z,2.85
2023-04-02T01:50:40.076Z,2.67
2023-04-02T01:50:53.808Z,2.45
2023-04-02T01:51:07.851Z,2.53
2023-04-02T01:51:34.159Z,2.67
2023-04-02T01:51:53.521Z,3.10
2023-04-02T01:52:04.965Z,3.22
2023-04-02T01:52:25.967Z,2.80
2023-04-02T01:52:43.217Z,2.65
2023-04-02T01:52:58.238Z,2.83
2023-04-02T01:53:13.541Z,2.92
2023-04-02T01:53:27.677Z,2.72
2023-04-02T01:53:39.166Z,2.83
2023-04-02T01:53:50.756Z,3.08
2023-04-02T01:54:04.776Z,2.90
2023-04-02T01:54:16.926Z,2.80
2023-04-02T01:54:28.872Z,2.90
2023-04-02T01:54:41.781Z,3.05
2023-04-02T01:54:53.166Z,2.78
2023-04-02T01:55:05.262Z,3.10
2023-04-02T01:55:20.187Z,3.33
2023-04-02T01:55:50.429Z,3.47
2023-04-02T01:56:02.625Z,3.30
2023-04-02T01:56:14.184Z,3.50
2023-04-02T01:56:27.497Z,3.40
2023-04-02T01:56:40.744Z,3.25
2023-04-02T01:56:52.506Z,2.85
2023-04-02T01:57:05.128Z,2.70
2023-04-02T01:57:16.733Z,2.83
2023-04-02T01:57:28.653Z,3.00
2023-04-02T01:57:47.985Z,3.22
2023-04-02T01:58:01.160Z,3.58
2023-04-02T01:58:15.892Z,3.40
2023-04-02T01:58:31.125Z,3.47
2023-04-02T01:58:42.640Z,3.47
2023-04-02T01:58:55.884Z,3.28
2023-04-02T01:59:08.062Z,3.47
2023-04-02T01:59:22.551Z,3.47
2023-04-02T01:59:34.256Z,3.40
2023-04-02T01:59:45.919Z,3.22
2023-04-02T01:59:59.655Z,3.50
2023-04-02T02:00:14.752Z,3.58
2023-04-02T02:00:28.730Z,3.33
2023-04-02T02:01:20.736Z,3.22
2023-04-02T02:01:41.605Z,3.10
2023-04-02T02:02:05.724Z,3.10
2023-04-02T02:02:17.438Z,3.15
2023-04-02T02:02:29.104Z,3.42
2023-04-02T02:02:42.362Z,3.30
2023-04-02T02:02:54.105Z,3.13
2023-04-02T02:03:06.182Z,2.90
2023-04-02T02:03:19.519Z,2.88
2023-04-02T02:03:31.673Z,2.83
2023-04-02T02:03:44.820Z,2.90
2023-04-02T02:03:56.610Z,3.03
2023-04-02T02:04:12.808Z,3.42
2023-04-02T02:04:25.068Z,3.05
2023-04-02T02:04:36.655Z,3.13
2023-04-02T02:04:48.532Z,3.20
2023-04-02T02:05:00.040Z,3.15
2023-04-02T02:05:17.141Z,3.08
2023-04-02T02:05:29.200Z,3.10
2023-04-02T02:05:41.015Z,3.08
2023-04-02T02:05:53.110Z,3.13
2023-04-02T02:06:05.918Z,2.90
2023-04-02T02:06:19.042Z,2.95
2023-04-02T02:06:30.838Z,3.03
2023-04-02T02:06:43.928Z,3.00
2023-04-02T02:06:56.959Z,3.25
2023-04-02T02:07:16.056Z,3.20
2023-04-02T02:07:29.867Z,3.25
2023-04-02T02:07:42.250Z,3.42
2023-04-02T02:07:55.597Z,3.15
2023-04-02T02:08:20.309Z,3.25
2023-04-02T02:08:34.424Z,3.10
2023-04-02T02:08:54.561Z,3.15
2023-04-02T02:09:07.979Z,3.10
2023-04-02T02:09:27.424Z,3.17
2023-04-02T02:09:46.373Z,3.05
2023-04-02T02:09:57.872Z,3.33
2023-04-02T02:10:21.781Z,3.70
2023-04-02T02:10:36.393Z,3.78
2023-04-02T02:10:49.305Z,3.85
2023-04-02T02:11:02.329Z,3.90
2023-04-02T02:11:26.576Z,4.10
2023-04-02T02:11:38.936Z,3.85
2023-04-02T02:11:50.933Z,4.00
2023-04-02T02:12:04.097Z,4.18
2023-04-02T02:12:15.970Z,3.95
2023-04-02T02:12:27.487Z,3.72
2023-04-02T02:12:38.873Z,4.18
2023-04-02T02:12:50.348Z,4.53
2023-04-02T02:13:02.151Z,4.30
2023-04-02T02:13:16.570Z,4.20
2023-04-02T02:13:28.066Z,4.32
2023-04-02T02:13:41.591Z,4.35
2023-04-02T02:13:58.074Z,4.13
2023-04-02T02:14:16.631Z,4.07
2023-04-02T02:14:29.378Z,4.32
2023-04-02T02:14:47.513Z,4.43
2023-04-02T02:14:58.951Z,4.55
2023-04-02T02:15:19.350Z,5.20
2023-04-02T02:15:33.740Z,5.50
2023-04-02T02:15:45.537Z,5.40
2023-04-02T02:15:59.045Z,5.28
2023-04-02T02:16:16.464Z,4.82
2023-04-02T02:16:30.232Z,4.82
2023-04-02T02:16:41.993Z,5.18
2023-04-02T02:16:55.146Z,5.13
2023-04-02T02:17:07.982Z,5.03
2023-04-02T02:17:27.195Z,4.80
2023-04-02T02:17:38.755Z,5.07
2023-04-02T02:17:54.053Z,5.55
2023-04-02T02:18:06.528Z,5.65
2023-04-02T02:18:22.854Z,6.10
2023-04-02T02:18:34.543Z,6.25
2023-04-02T02:18:51.786Z,6.07
2023-04-02T02:19:04.813Z,5.63
2023-04-02T02:19:55.847Z,5.75
2023-04-02T02:20:09.315Z,6.05
2023-04-02T02:20:22.113Z,6.40
2023-04-02T02:20:34.801Z,6.03
2023-04-02T02:20:47.267Z,5.85
2023-04-02T02:21:01.063Z,6.53
2023-04-02T02:21:23.971Z,7.63
2023-04-02T02:21:41.385Z,7.25
2023-04-02T02:21:56.707Z,6.70
2023-04-02T02:22:31.060Z,6.80
2023-04-02T02:22:48.337Z,6.93
2023-04-02T02:23:01.810Z,7.07
2023-04-02T02:23:14.552Z,7.13
2023-04-02T02:23:28.967Z,7.03
2023-04-02T02:23:40.506Z,6.60
2023-04-02T02:23:52.497Z,6.97
2023-04-02T02:24:05.222Z,6.95
2023-04-02T02:24:28.487Z,7.22
2023-04-02T02:24:40.730Z,6.70
2023-04-02T02:24:53.366Z,6.72
2023-04-02T02:25:11.201Z,7.13
2023-04-02T02:25:26.674Z,6.90
2023-04-02T02:25:39.053Z,6.60
2023-04-02T02:25:50.519Z,6.90
2023-04-02T02:26:02.084Z,6.95
2023-04-02T02:26:14.992Z,6.88
2023-04-02T02:26:29.399Z,7.00
2023-04-02T02:26:42.877Z,6.88
2023-04-02T02:27:00.298Z,7.25
2023-04-02T02:27:14.601Z,7.00
2023-04-02T02:27:25.910Z,6.18
2023-04-02T02:27:46.974Z,6.20
2023-04-02T02:28:33.070Z,7.07
2023-04-02T02:28:49.942Z,6.65
2023-04-02T02:29:06.660Z,6.68
2023-04-02T02:29:20.598Z,6.60
2023-04-02T02:29:37.167Z,6.32
2023-04-02T02:30:20.919Z,6.88
2023-04-02T02:30:32.319Z,7.32
2023-04-02T02:30:52.711Z,6.95
2023-04-02T02:31:11.412Z,7.22
2023-04-02T02:31:29.664Z,7.82
2023-04-02T02:31:43.752Z,7.25
2023-04-02T02:31:57.681Z,7.63
2023-04-02T02:32:11.737Z,8.07
2023-04-02T02:32:28.589Z,8.60
2023-04-02T02:32:48.106Z,8.95
2023-04-02T02:33:14.701Z,8.70
2023-04-02T02:33:38.940Z,7.85
2023-04-02T02:33:52.950Z,8.55
2023-04-02T02:34:12.368Z,8.35
2023-04-02T02:34:34.001Z,8.98
2023-04-02T02:35:08.043Z,8.70
2023-04-02T02:35:42.238Z,8.18
2023-04-02T02:35:59.570Z,8.68
2023-04-02T02:36:19.832Z,9.20
2023-04-02T02:36:47.075Z,8.57
2023-04-02T02:37:06.766Z,9.35
2023-04-02T02:37:28.122Z,9.13
2023-04-02T02:37:43.800Z,9.35
2023-04-02T02:38:05.925Z,9.85
2023-04-02T02:38:39.008Z,10.13
2023-04-02T02:39:13.155Z,9.00
2023-04-02T02:39:35.603Z,9.20
2023-04-02T02:39:53.519Z,9.30
2023-04-02T02:40:11.680Z,9.40
2023-04-02T02:40:45.177Z,9.20
2023-04-02T02:41:03.375Z,9.77
2023-04-02T02:41:42.650Z,9.77
2023-04-02T02:42:26.709Z,9.70
2023-04-02T02:42:49.124Z,9.05
2023-04-02T02:43:04.074Z,9.55
2023-04-02T02:43:18.033Z,9.88
2023-04-02T02:43:30.167Z,9.90
2023-04-02T02:44:00.525Z,9.52
2023-04-02T02:44:20.821Z,9.32
2023-04-02T02:44:39.660Z,9.45
2023-04-02T02:44:53.920Z,9.35
2023-04-02T02:45:13.078Z,9.25
2023-04-02T02:45:28.981Z,10.27
2023-04-02T02:45:43.150Z,10.05
2023-04-02T02:45:57.491Z,9.38
2023-04-02T02:46:13.903Z,9.57
2023-04-02T02:46:27.624Z,9.52
2023-04-02T02:46:52.610Z,9.93
2023-04-02T02:47:14.950Z,9.98
2023-04-02T02:47:33.190Z,9.98
2023-04-02T02:47:45.811Z,10.07
2023-04-02T02:47:58.664Z,9.70
2023-04-02T02:48:14.938Z,9.45
2023-04-02T02:48:36.310Z,9.80
2023-04-02T02:48:48.740Z,10.07
2023-04-02T02:49:03.321Z,9.98
2023-04-02T02:49:18.126Z,10.07
2023-04-02T02:49:36.193Z,10.18
2023-04-02T02:49:51.891Z,10.70
2023-04-02T02:50:08.498Z,10.93
2023-04-02T02:50:30.030Z,10.50
2023-04-02T02:50:42.450Z,10.25
2023-04-02T02:50:56.266Z,10.82
2023-04-02T02:51:20.400Z,11.18
2023-04-02T02:51:44.051Z,10.60
2023-04-02T02:52:10.337Z,10.32
2023-04-02T02:52:28.135Z,11.38
2023-04-02T02:52:45.108Z,11.07
2023-04-02T02:52:59.423Z,10.15
2023-04-02T02:53:31.178Z,9.60
2023-04-02T02:53:50.760Z,8.70
2023-04-02T02:54:05.203Z,9.05
2023-04-02T02:54:18.397Z,9.30
2023-04-02T02:54:32.331Z,8.98
2023-04-02T02:54:54.921Z,9.33
2023-04-02T02:55:10.817Z,9.45
2023-04-02T02:55:27.456Z,10.05
2023-04-02T02:55:40.040Z,9.38
2023-04-02T02:55:58.546Z,8.80
2023-04-02T02:56:10.162Z,9.48
2023-04-02T02:56:23.832Z,9.48
2023-04-02T02:56:40.705Z,9.60
2023-04-02T02:57:00.555Z,9.20
2023-04-02T02:57:17.852Z,8.98
2023-04-02T02:57:34.343Z,8.77
2023-04-02T02:58:11.941Z,8.98
2023-04-02T02:58:28.681Z,8.45
2023-04-02T02:58:40.228Z,8.48
2023-04-02T02:58:53.792Z,8.82
2023-04-02T02:59:09.200Z,8.85
2023-04-02T02:59:23.014Z,8.95
2023-04-02T02:59:35.007Z,9.20
2023-04-02T02:59:47.330Z,9.55
2023-04-02T03:00:01.554Z,9.40
2023-04-02T03:00:13.580Z,9.15
2023-04-02T03:00:26.617Z,9.32
2023-04-02T03:00:39.063Z,9.45
2023-04-02T03:00:50.509Z,9.73
2023-04-02T03:01:05.463Z,9.32
2023-04-02T03:01:17.066Z,9.20
2023-04-02T03:01:30.376Z,8.93
2023-04-02T03:01:44.307Z,8.82
2023-04-02T03:01:55.925Z,9.15
2023-04-02T03:02:07.764Z,9.40
2023-04-02T03:02:19.496Z,9.32
2023-04-02T03:02:35.117Z,9.18
2023-04-02T03:02:47.827Z,7.60
2023-04-02T03:03:00.060Z,5.72
2023-04-02T03:03:16.440Z,5.00
2023-04-02T03:03:32.944Z,5.32
2023-04-02T03:03:46.286Z,6.20
2023-04-02T03:03:58.062Z,6.38
2023-04-02T03:04:09.934Z,6.18
2023-04-02T03:04:24.118Z,6.00
2023-04-02T03:04:36.316Z,6.05
2023-04-02T03:04:51.321Z,6.43
2023-04-02T03:05:03.453Z,7.03
2023-04-02T03:05:21.701Z,7.13
2023-04-02T03:05:33.730Z,6.70
2023-04-02T03:05:51.581Z,6.57
2023-04-02T03:06:06.886Z,7.20
2023-04-02T03:06:18.360Z,7.85
2023-04-02T03:06:30.172Z,7.85
2023-04-02T03:06:41.919Z,7.13
2023-04-02T03:06:55.866Z,7.32
2023-04-02T03:07:08.173Z,7.43
2023-04-02T03:07:21.861Z,7.75
2023-04-02T03:07:34.099Z,8.20
2023-04-02T03:07:53.428Z,8.32
2023-04-02T03:08:07.294Z,8.57
2023-04-02T03:08:33.990Z,8.80
2023-04-02T03:09:09.074Z,9.00
2023-04-02T03:09:38.980Z,9.52
2023-04-02T03:10:05.539Z,9.55
2023-04-02T03:10:22.912Z,10.82
2023-04-02T03:10:58.672Z,10.60
2023-04-02T03:11:44.101Z,11.10
2023-04-02T03:12:20.599Z,10.95
2023-04-02T03:12:41.432Z,9.65
2023-04-02T03:13:14.671Z,9.38
2023-04-02T03:13:31.615Z,9.15
2023-04-02T03:13:48.750Z,9.30
2023-04-02T03:14:25.518Z,9.32
2023-04-02T03:14:48.824Z,10.40
2023-04-02T03:15:06.060Z,10.63
2023-04-02T03:15:32.293Z,10.35
2023-04-02T03:15:55.584Z,9.40
2023-04-02T03:16:17.143Z,10.50
2023-04-02T03:16:33.479Z,10.70
2023-04-02T03:16:49.888Z,9.35
2023-04-02T03:17:12.355Z,9.07
2023-04-02T03:18:09.841Z,10.40
2023-04-02T03:18:24.320Z,8.32
2023-04-02T03:18:52.666Z,8.57
2023-04-02T03:19:38.511Z,8.63
2023-04-02T03:19:58.223Z,8.07
2023-04-02T03:20:12.624Z,8.18
2023-04-02T03:20:53.474Z,8.25
2023-04-02T03:21:16.481Z,8.95
2023-04-02T03:21:34.167Z,8.75
2023-04-02T03:21:52.204Z,8.80
2023-04-02T03:22:14.133Z,8.55
2023-04-02T03:22:31.122Z,8.75
2023-04-02T03:22:51.879Z,8.52
2023-04-02T03:23:44.013Z,8.32
2023-04-02T03:24:06.220Z,7.60
2023-04-02T03:24:22.638Z,7.60
2023-04-02T03:24:55.599Z,7.53
2023-04-02T03:25:32.521Z,7.72
2023-04-02T03:25:52.331Z,3.80
2023-04-02T03:26:18.248Z,2.63
2023-04-02T03:26:55.515Z,3.75
2023-04-02T03:27:31.247Z,4.20
2023-04-02T03:27:48.837Z,3.95
2023-04-02T03:28:04.958Z,3.63
2023-04-02T03:28:22.765Z,3.47
2023-04-02T03:28:41.371Z,4.25
2023-04-02T03:29:01.785Z,4.97
2023-04-02T03:29:25.904Z,4.95
2023-04-02T03:29:43.195Z,5.60
2023-04-02T03:30:19.021Z,6.38
2023-04-02T03:30:39.522Z,8.90
2023-04-02T03:31:05.696Z,9.43
2023-04-02T03:31:24.942Z,9.32
2023-04-02T03:31:44.784Z,9.88
2023-04-02T03:32:12.048Z,9.77
2023-04-02T03:32:29.232Z,9.98
2023-04-02T03:32:43.859Z,9.95
2023-04-02T03:33:04.856Z,9.57
2023-04-02T03:33:27.656Z,10.35
2023-04-02T03:33:50.156Z,11.80
2023-04-02T03:34:11.786Z,11.23
2023-04-02T03:34:26.063Z,11.65
2023-04-02T03:34:53.717Z,11.88
2023-04-02T03:35:22.738Z,12.20
2023-04-02T03:35:38.301Z,12.43
2023-04-02T03:36:19.816Z,13.32
2023-04-02T03:36:37.943Z,13.73
2023-04-02T03:37:07.266Z,14.60
2023-04-02T03:37:31.042Z,13.85
2023-04-02T03:37:48.139Z,14.27
2023-04-02T03:38:11.640Z,14.73
2023-04-02T03:38:28.823Z,14.45
2023-04-02T03:38:55.941Z,14.13
2023-04-02T03:39:16.476Z,14.07
2023-04-02T03:39:54.985Z,14.50
2023-04-02T03:40:17.779Z,15.60
2023-04-02T03:40:34.964Z,14.65
2023-04-02T03:40:59.844Z,15.70
2023-04-02T03:41:18.528Z,15.03
2023-04-02T03:41:38.076Z,15.30
2023-04-02T03:41:55.159Z,15.75
2023-04-02T03:42:14.296Z,15.35
2023-04-02T03:42:29.991Z,15.65
2023-04-02T03:42:48.055Z,15.18
2023-04-02T03:43:15.284Z,14.75
2023-04-02T03:43:31.618Z,15.43
2023-04-02T03:43:47.801Z,15.18
2023-04-02T03:44:04.796Z,14.60
2023-04-02T03:44:37.510Z,15.27
2023-04-02T03:45:02.945Z,14.52
2023-04-02T03:45:23.264Z,14.43
2023-04-02T03:45:41.106Z,14.48
2023-04-02T03:45:58.453Z,14.70
2023-04-02T03:46:13.897Z,14.65
2023-04-02T03:46:32.934Z,14.38
2023-04-02T03:46:54.061Z,14.43
2023-04-02T03:47:14.538Z,14.63
2023-04-02T03:47:36.812Z,14.57
2023-04-02T03:48:11.324Z,14.02
2023-04-02T03:48:28.785Z,13.73
2023-04-02T03:48:48.377Z,13.82
2023-04-02T03:49:09.606Z,13.93
2023-04-02T03:49:48.327Z,14.90
2023-04-02T03:50:12.013Z,14.52
2023-04-02T03:50:26.894Z,15.13
2023-04-02T03:50:46.104Z,14.90
2023-04-02T03:51:06.897Z,15.55
2023-04-02T03:51:21.525Z,15.52
2023-04-02T03:51:52.681Z,15.63
2023-04-02T03:52:10.635Z,15.50
2023-04-02T03:52:27.905Z,15.50
2023-04-02T03:52:39.682Z,16.02
2023-04-02T03:52:51.590Z,16.52
2023-04-02T03:53:04.592Z,16.85
2023-04-02T03:53:16.155Z,16.70
2023-04-02T03:53:28.716Z,17.33
2023-04-02T03:53:40.368Z,17.88
2023-04-02T03:53:51.785Z,17.90
2023-04-02T03:54:04.607Z,17.48
2023-04-02T03:54:17.121Z,17.40
2023-04-02T03:54:28.738Z,17.40
2023-04-02T03:54:40.537Z,17.10
2023-04-02T03:55:14.915Z,16.50
2023-04-02T03:55:30.377Z,16.42
2023-04-02T03:55:43.028Z,17.38
2023-04-02T03:55:55.316Z,17.90
2023-04-02T03:56:06.930Z,18.27
2023-04-02T03:56:35.914Z,17.77
2023-04-02T03:56:47.959Z,18.65
2023-04-02T03:57:00.167Z,18.55
2023-04-02T03:57:24.771Z,18.13
2023-04-02T03:57:42.945Z,17.55
2023-04-02T03:58:19.085Z,17.17
2023-04-02T03:58:44.206Z,17.40
2023-04-02T03:59:06.272Z,16.83
2023-04-02T03:59:59.234Z,17.20
2023-04-02T04:00:24.553Z,16.50
2023-04-02T04:00:41.649Z,17.45
2023-04-02T04:01:06.332Z,17.27
2023-04-02T04:01:24.331Z,16.70
2023-04-02T04:01:43.390Z,16.40
2023-04-02T04:02:11.620Z,16.35
2023-04-02T04:02:43.942Z,17.38
2023-04-02T04:02:59.448Z,16.58
2023-04-02T04:03:25.008Z,17.02
2023-04-02T04:03:43.410Z,16.60
2023-04-02T04:04:03.037Z,16.80
2023-04-02T04:04:18.870Z,17.33
2023-04-02T04:04:32.293Z,17.60
2023-04-02T04:04:46.210Z,17.73
2023-04-02T04:04:58.022Z,17.75
2023-04-02T04:05:30.176Z,18.05
2023-04-02T04:06:08.027Z,17.80
2023-04-02T04:06:24.767Z,18.10